Time;durP1;ratioP1;P1;durP2;ratioP2;P2;SDS_P1;SDS_P2;PMS_P1;PMS_P2;Temp;Humidity;BMP_temperature;BMP_pressure;BME280_temperature;BME280_humidity;BME280_pressure;Samples;Min_cycle;Max_cycle;Signal;HPM_P1;HPM_P2
2021/12/20 00:02:16;;;;;;;9.77;1.73;;;;;;;2.69;89.94;100552.31;10497813;28;20060;-71
2021/12/20 00:07:19;;;;;;;14.30;2.20;;;;;;;2.57;87.98;100562.59;10479739;28;20119;-71
2021/12/20 00:12:21;;;;;;;11.93;1.83;;;;;;;2.46;88.77;100559.91;10480981;28;20040;-71
2021/12/20 00:17:22;;;;;;;7.38;1.58;;;;;;;2.34;89.65;100565.84;10499440;28;20053;-71
2021/12/20 00:22:24;;;;;;;5.65;1.48;;;;;;;2.35;89.32;100559.81;10500806;28;20040;-73
2021/12/20 00:27:25;;;;;;;5.22;1.30;;;;;;;2.38;88.02;100570.19;10505802;28;20049;-72
2021/12/20 00:32:27;;;;;;;9.90;2.00;;;;;;;2.21;87.02;100572.66;10486789;28;20590;-70
2021/12/20 00:42:57;;;;;;;5.75;1.40;;;;;;;2.04;85.29;100581.97;10505800;28;20056;-72
2021/12/20 00:47:59;;;;;;;12.90;1.58;;;;;;;1.99;85.22;100574.13;10487269;28;20055;-72
2021/12/20 00:53:01;;;;;;;5.97;1.60;;;;;;;1.84;85.79;100586.91;10485374;28;20051;-72
2021/12/20 00:58:03;;;;;;;6.82;1.70;;;;;;;1.84;85.98;100580.84;10503138;28;20032;-72
2021/12/20 01:03:07;;;;;;;3.38;1.20;;;;;;;1.71;86.18;100592.78;10486337;28;20040;-72
2021/12/20 01:08:10;;;;;;;6.43;1.63;;;;;;;1.71;85.65;100598.81;10503284;28;20048;-72
2021/12/20 01:13:13;;;;;;;5.88;1.08;;;;;;;1.73;84.36;100596.28;10503339;28;20570;-72
2021/12/20 01:18:15;;;;;;;4.43;1.30;;;;;;;1.63;83.30;100597.84;10502549;28;20512;-71
2021/12/20 01:23:17;;;;;;;6.68;0.82;;;;;;;1.49;82.23;100592.47;10485411;28;20055;-71
2021/12/20 01:28:19;;;;;;;5.15;1.10;;;;;;;1.43;80.00;100600.19;10503010;28;20044;-72
2021/12/20 01:33:21;;;;;;;3.53;0.73;;;;;;;1.44;79.68;100609.69;10501989;28;20079;-72
2021/12/20 01:38:23;;;;;;;4.30;0.60;;;;;;;1.25;79.24;100607.69;10468319;28;20592;-72
2021/12/20 01:43:25;;;;;;;4.13;1.05;;;;;;;1.18;78.94;100622.25;10501577;28;20048;-71
2021/12/20 01:48:27;;;;;;;3.25;0.85;;;;;;;1.10;78.31;100618.66;10483507;28;20049;-72
2021/12/20 01:53:28;;;;;;;0.90;0.50;;;;;;;1.23;78.32;100617.13;10483932;28;20036;-71
2021/12/20 01:58:30;;;;;;;2.25;0.80;;;;;;;1.18;77.12;100634.31;10501797;28;20051;-71
2021/12/20 02:03:34;;;;;;;2.88;0.70;;;;;;;1.14;77.86;100630.81;10500776;28;20049;-72
2021/12/20 02:08:37;;;;;;;6.47;2.05;;;;;;;1.14;79.77;100623.03;10482611;28;20055;-72
2021/12/20 02:13:40;;;;;;;3.97;1.17;;;;;;;1.37;80.03;100620.78;10482816;28;20045;-72
2021/12/20 02:18:42;;;;;;;5.55;1.30;;;;;;;1.08;82.13;100622.94;10501121;28;20052;-72
2021/12/20 02:23:44;;;;;;;6.03;1.20;;;;;;;1.08;82.66;100632.44;10501627;28;20094;-72
2021/12/20 02:28:48;;;;;;;5.25;1.27;;;;;;;1.16;82.94;100633.44;10501612;28;20512;-72
2021/12/20 02:39:10;;;;;;;4.65;1.45;;;;;;;1.19;82.97;100628.28;10501366;28;20049;-72
2021/12/20 02:44:18;;;;;;;3.88;1.20;;;;;;;1.14;82.69;100635.13;10500317;28;20113;-71
2021/12/20 02:49:23;;;;;;;6.95;1.45;;;;;;;0.95;83.00;100636.53;10465526;28;20113;-72
2021/12/20 02:54:28;;;;;;;4.32;1.10;;;;;;;0.98;83.09;100634.00;10497295;22;20036;-72
2021/12/20 02:59:30;;;;;;;5.15;1.33;;;;;;;1.07;82.82;100628.13;10498544;28;20107;-74
2021/12/20 03:04:32;;;;;;;4.72;1.77;;;;;;;0.75;84.28;100631.00;10481279;28;20056;-74
2021/12/20 03:09:38;;;;;;;5.10;1.38;;;;;;;0.78;84.44;100640.56;10481675;28;20048;-74
2021/12/20 03:14:44;;;;;;;3.50;0.90;;;;;;;0.88;83.96;100647.63;10482250;28;20401;-73
2021/12/20 03:19:46;;;;;;;6.25;1.10;;;;;;;0.92;83.51;100654.59;10481200;28;20053;-74
2021/12/20 03:24:48;;;;;;;6.28;1.27;;;;;;;0.93;83.64;100661.50;10480643;28;20057;-74
2021/12/20 03:29:50;;;;;;;5.22;1.20;;;;;;;0.49;85.45;100669.38;10480956;28;20040;-73
2021/12/20 03:34:52;;;;;;;8.82;2.30;;;;;;;0.57;85.75;100664.31;10498472;28;20159;-73
2021/12/20 03:39:54;;;;;;;9.25;1.52;;;;;;;0.52;85.35;100678.88;10480559;28;20094;-74
2021/12/20 03:44:55;;;;;;;4.85;1.30;;;;;;;0.50;85.65;100684.91;10499086;28;20516;-73
2021/12/20 03:49:57;;;;;;;8.30;1.83;;;;;;;0.50;86.03;100678.84;10480491;28;20071;-73
2021/12/20 03:54:59;;;;;;;5.97;1.20;;;;;;;0.54;85.77;100684.97;10498226;28;20051;-73
2021/12/20 04:00:03;;;;;;;7.88;1.55;;;;;;;0.63;84.83;100678.25;10488391;28;20045;-73
2021/12/20 04:05:14;;;;;;;4.13;1.02;;;;;;;0.59;85.57;100706.63;10507079;28;20072;-73
2021/12/20 04:10:16;;;;;;;4.95;1.23;;;;;;;0.44;85.38;100704.59;10507061;28;20048;-73
2021/12/20 04:15:17;;;;;;;4.82;1.05;;;;;;;0.39;85.62;100701.91;10487828;28;20048;-72
2021/12/20 04:20:19;;;;;;;3.22;1.00;;;;;;;0.57;84.56;100695.34;10505835;28;20044;-73
2021/12/20 04:25:21;;;;;;;5.20;1.20;;;;;;;0.51;84.20;100703.88;10487356;28;20087;-74
2021/12/20 04:30:23;;;;;;;8.90;1.38;;;;;;;0.45;84.15;100712.41;10505395;28;20045;-73
2021/12/20 04:35:24;;;;;;;5.20;1.27;;;;;;;0.43;83.46;100710.59;10505548;28;20048;-74
2021/12/20 04:40:26;;;;;;;6.18;0.93;;;;;;;0.48;83.64;100706.41;10505814;28;20051;-74
2021/12/20 04:45:29;;;;;;;6.30;1.20;;;;;;;0.35;83.50;100707.84;10505862;28;20041;-73
2021/12/20 04:50:31;;;;;;;4.20;1.00;;;;;;;0.28;83.68;100710.31;10504641;28;20044;-74
2021/12/20 04:55:33;;;;;;;5.38;0.95;;;;;;;0.34;83.06;100711.28;10486758;28;20059;-74
2021/12/20 05:00:36;;;;;;;7.38;1.15;;;;;;;0.38;82.45;100699.31;10504989;28;20037;-73
2021/12/20 05:05:38;;;;;;;6.10;1.00;;;;;;;0.19;83.50;100705.81;10487645;28;20072;-73
2021/12/20 05:10:41;;;;;;;7.85;1.48;;;;;;;0.33;82.47;100711.28;10485526;28;20047;-73
2021/12/20 05:15:42;;;;;;;3.03;1.05;;;;;;;0.24;82.94;100712.81;10486706;28;20056;-72
2021/12/20 05:20:44;;;;;;;3.92;1.58;;;;;;;0.08;83.88;100715.03;10485573;28;20044;-73
2021/12/20 05:25:46;;;;;;;3.30;1.25;;;;;;;0.26;82.67;100712.84;10485249;28;20086;-73
2021/12/20 05:30:51;;;;;;;5.10;1.00;;;;;;;0.33;82.47;100713.84;10485558;28;20075;-73
2021/12/20 05:35:53;;;;;;;6.47;1.50;;;;;;;0.21;82.44;100712.75;10484545;28;20049;-73
2021/12/20 05:41:15;;;;;;;6.20;1.45;;;;;;;0.12;82.85;100741.00;10504836;28;20136;-73
2021/12/20 05:46:17;;;;;;;2.97;1.13;;;;;;;0.18;82.78;100729.94;10485705;28;20082;-73
2021/12/20 05:51:19;;;;;;;7.07;1.25;;;;;;;0.31;82.02;100726.78;10502929;28;20482;-73
2021/12/20 05:56:20;;;;;;;5.07;1.90;;;;;;;0.04;83.11;100731.31;10502093;28;20127;-73
2021/12/20 06:01:22;;;;;;;6.93;1.45;;;;;;;0.07;83.06;100750.38;10503169;28;20032;-72
2021/12/20 06:06:26;;;;;;;5.35;2.30;;;;;;;0.06;83.22;100747.75;10484496;28;20094;-73
2021/12/20 06:11:28;;;;;;;8.07;1.63;;;;;;;0.17;82.75;100749.72;10501229;28;20040;-73
2021/12/20 06:16:30;;;;;;;8.70;1.50;;;;;;;0.08;83.16;100754.69;10483345;28;20044;-73
2021/12/20 06:21:32;;;;;;;5.47;1.55;;;;;;;0.04;83.19;100767.50;10500455;28;20048;-73
2021/12/20 06:26:34;;;;;;;7.97;2.05;;;;;;;0.23;82.48;100754.16;10500346;28;20118;-72
2021/12/20 06:31:35;;;;;;;4.88;1.80;;;;;;;0.07;83.30;100767.59;10501645;28;20128;-72
2021/12/20 06:36:37;;;;;;;10.43;1.70;;;;;;;-0.04;83.32;100781.16;10500409;28;20071;-73
2021/12/20 06:41:40;;;;;;;8.05;1.92;;;;;;;0.14;83.14;100785.00;10483535;28;20055;-73
2021/12/20 06:46:42;;;;;;;5.07;1.48;;;;;;;0.16;82.92;100789.34;10481506;28;20405;-73
2021/12/20 06:51:44;;;;;;;6.20;1.27;;;;;;;0.19;83.24;100788.56;10499564;28;20048;-72
2021/12/20 06:56:46;;;;;;;8.77;1.77;;;;;;;0.05;82.79;100802.88;10499877;28;20044;-72
2021/12/20 07:01:47;;;;;;;4.68;1.40;;;;;;;0.11;82.65;100803.88;10482731;28;20037;-73
2021/12/20 07:06:49;;;;;;;7.00;1.50;;;;;;;0.07;82.89;100812.41;10481777;28;20067;-73
2021/12/20 07:11:51;;;;;;;8.70;1.52;;;;;;;0.15;82.74;100812.59;10498996;28;20086;-72
2021/12/20 07:16:56;;;;;;;13.13;3.83;;;;;;;-0.21;84.09;100815.19;10499064;28;20413;-72
2021/12/20 07:21:58;;;;;;;11.93;2.10;;;;;;;-0.21;84.80;100810.88;10500083;28;20443;-72
2021/12/20 07:26:59;;;;;;;4.30;2.03;;;;;;;-0.02;83.38;100801.84;10481991;28;20067;-72
2021/12/20 07:32:01;;;;;;;6.63;1.40;;;;;;;0.03;83.10;100813.16;10498885;28;20041;-73
2021/12/20 07:37:03;;;;;;;7.13;1.73;;;;;;;-0.01;83.14;100817.38;10481985;28;20386;-73
2021/12/20 07:42:07;;;;;;;7.18;1.63;;;;;;;0.10;82.92;100821.97;10500286;28;20090;-72
2021/12/20 07:47:10;;;;;;;5.30;1.50;;;;;;;0.07;83.19;100825.31;10499193;28;20032;-72
2021/12/20 07:52:11;;;;;;;6.78;2.45;;;;;;;0.13;82.74;100814.25;10499593;28;20046;-73
2021/12/20 07:57:13;;;;;;;7.40;3.05;;;;;;;0.07;83.00;100819.28;10480874;28;20185;-73
2021/12/20 08:02:16;;;;;;;10.93;3.00;;;;;;;0.06;82.98;100833.06;10480376;28;20048;-73
2021/12/20 08:07:21;;;;;;;7.55;2.60;;;;;;;-0.02;83.10;100835.47;10497740;28;20132;-72
2021/12/20 08:12:23;;;;;;;7.60;2.80;;;;;;;0.11;82.75;100842.66;10481040;28;20040;-73
2021/12/20 08:17:24;;;;;;;7.18;2.88;;;;;;;-0.02;83.25;100845.78;10498589;28;20436;-72
2021/12/20 08:22:26;;;;;;;6.45;2.20;;;;;;;0.00;83.25;100854.47;10479562;28;20041;-72
2021/12/20 08:27:28;;;;;;;8.00;2.42;;;;;;;0.05;83.36;100852.88;10498457;28;20087;-73
2021/12/20 08:32:29;;;;;;;14.15;3.08;;;;;;;-0.08;84.16;100856.00;10480227;28;20049;-73
2021/12/20 08:37:31;;;;;;;9.77;3.05;;;;;;;0.01;83.90;100868.28;10497572;28;20044;-72
2021/12/20 08:42:33;;;;;;;7.72;3.63;;;;;;;0.16;83.59;100872.06;10497179;28;20048;-74
2021/12/20 08:47:34;;;;;;;10.10;3.13;;;;;;;0.20;83.03;100866.16;10504629;28;20185;-72
2021/12/20 08:52:36;;;;;;;8.27;2.75;;;;;;;0.15;83.52;100872.06;10486442;28;20049;-73
2021/12/20 08:57:39;;;;;;;6.72;2.50;;;;;;;0.43;82.63;100864.06;10519381;22;20041;-72
2021/12/20 09:02:41;;;;;;;11.82;4.75;;;;;;;0.19;83.51;100873.88;10502596;28;20055;-72
2021/12/20 09:07:43;;;;;;;7.60;3.28;;;;;;;0.55;81.89;100880.72;10507123;28;20040;-71
2021/12/20 09:12:45;;;;;;;11.10;3.85;;;;;;;0.42;83.47;100877.00;10521916;28;20101;-72
2021/12/20 09:17:51;;;;;;;12.45;3.95;;;;;;;0.49;82.62;100878.88;10531810;28;20125;-71
2021/12/20 09:23:02;;;;;;;6.50;2.83;;;;;;;0.42;83.64;100883.03;10540843;28;20041;-71
2021/12/20 09:28:08;;;;;;;10.27;3.40;;;;;;;0.44;84.29;100886.53;10536660;28;20282;-72
2021/12/20 09:33:10;;;;;;;7.88;2.60;;;;;;;0.58;83.29;100885.97;10545761;28;20048;-71
2021/12/20 09:38:16;;;;;;;8.32;2.60;;;;;;;0.80;82.06;100893.38;10542943;28;20055;-72
2021/12/20 09:43:20;;;;;;;8.13;2.60;;;;;;;0.90;81.97;100887.53;10524928;28;20051;-70
2021/12/20 09:48:24;;;;;;;6.15;2.53;;;;;;;1.10;80.72;100894.84;10500883;28;20049;-72
2021/12/20 09:53:26;;;;;;;10.68;2.70;;;;;;;1.07;80.78;100897.38;10501074;28;20120;-71
2021/12/20 09:58:27;;;;;;;9.52;3.65;;;;;;;1.15;81.41;100898.38;10503251;28;20045;-71
2021/12/20 10:03:29;;;;;;;9.20;2.78;;;;;;;0.90;81.74;100892.72;10508889;28;20437;-71
2021/12/20 10:08:36;;;;;;;9.73;2.92;;;;;;;0.95;82.56;100893.69;10487991;28;20072;-71
2021/12/20 10:13:40;;;;;;;10.43;2.28;;;;;;;1.13;80.31;100882.81;10465452;28;20044;-71
2021/12/20 10:18:42;;;;;;;12.50;3.70;;;;;;;1.12;80.87;100883.69;10466305;28;20048;-71
2021/12/20 10:23:47;;;;;;;6.75;2.65;;;;;;;1.15;80.88;100881.16;10501196;28;20071;-73
2021/12/20 10:28:52;;;;;;;12.07;3.75;;;;;;;1.08;81.37;100881.00;10500355;28;20068;-71
2021/12/20 10:33:59;;;;;;;7.00;3.75;;;;;;;1.11;82.55;100883.66;10528973;28;20032;-71
2021/12/20 10:39:04;;;;;;;8.25;3.58;;;;;;;1.23;81.15;100886.47;10506046;28;20127;-70
2021/12/20 10:44:16;;;;;;;10.68;2.83;;;;;;;1.30;80.39;100890.94;10499672;28;20036;-70
2021/12/20 10:49:25;;;;;;;13.15;4.43;;;;;;;1.23;81.63;100883.88;10500143;28;20048;-70
2021/12/20 10:54:31;;;;;;;6.80;3.03;;;;;;;1.56;79.76;100888.84;10498825;28;20037;-71
2021/12/20 10:59:35;;;;;;;7.97;3.43;;;;;;;1.50;80.11;100884.41;10498875;28;20044;-71
2021/12/20 11:04:52;;;;;;;14.82;3.17;;;;;;;1.17;82.71;100887.22;10497422;28;20036;-71
2021/12/20 11:10:07;;;;;;;11.88;2.70;;;;;;;1.37;82.17;100890.19;10496078;28;20044;-72
2021/12/20 11:15:12;;;;;;;9.95;2.72;;;;;;;1.31;82.32;100897.84;10498689;28;20044;-70
2021/12/20 11:20:21;;;;;;;10.77;3.00;;;;;;;1.43;82.40;100903.28;10500369;28;20059;-71
2021/12/20 11:25:22;;;;;;;12.23;4.18;;;;;;;1.58;81.28;100904.41;10498645;28;20037;-70
2021/12/20 11:30:26;;;;;;;10.32;3.55;;;;;;;1.72;81.51;100902.94;10497719;28;20044;-70
2021/12/20 11:35:30;;;;;;;12.93;3.47;;;;;;;1.63;81.52;100901.03;10498578;28;20500;-70
2021/12/20 11:40:32;;;;;;;9.32;3.90;;;;;;;1.66;82.41;100892.47;10497263;28;20040;-70
2021/12/20 11:45:35;;;;;;;8.55;2.38;;;;;;;1.87;80.72;100889.38;10496796;28;20045;-70
2021/12/20 11:50:39;;;;;;;6.68;2.80;;;;;;;2.03;78.67;100887.06;10497785;28;20049;-72
2021/12/20 11:55:50;;;;;;;7.35;2.60;;;;;;;1.86;79.39;100896.31;10497816;28;20040;-71
2021/12/20 12:00:54;;;;;;;5.55;2.28;;;;;;;1.93;79.49;100890.34;10497888;28;20083;-70
2021/12/20 12:05:58;;;;;;;12.63;3.40;;;;;;;1.86;80.50;100891.13;10496569;28;20045;-70
2021/12/20 12:10:59;;;;;;;10.07;2.65;;;;;;;1.93;80.19;100879.13;10495814;28;20118;-71
2021/12/20 12:16:15;;;;;;;10.30;2.78;;;;;;;1.91;80.72;100886.88;10496563;28;20057;-70
2021/12/20 12:21:32;;;;;;;11.00;2.60;;;;;;;1.92;80.66;100887.75;10502439;28;20090;-71
2021/12/20 12:26:51;;;;;;;7.80;2.28;;;;;;;1.96;81.06;100895.59;10503552;28;20083;-70
2021/12/20 12:32:00;;;;;;;13.27;2.65;;;;;;;1.76;81.13;100892.66;10503148;28;20040;-71
2021/12/20 12:37:17;;;;;;;6.57;2.25;;;;;;;2.10;79.41;100880.25;10504089;28;20051;-70
2021/12/20 12:42:46;;;;;;;8.73;2.63;;;;;;;1.93;81.38;100890.34;10503059;28;20045;-70
2021/12/20 12:47:57;;;;;;;6.68;2.03;;;;;;;1.96;80.52;100890.41;10501603;28;20053;-71
2021/12/20 12:52:59;;;;;;;9.13;2.83;;;;;;;1.95;81.51;100880.03;10502732;28;20478;-70
2021/12/20 12:58:20;;;;;;;5.38;2.17;;;;;;;1.89;81.11;100885.97;10502608;28;20102;-71
2021/12/20 13:03:24;;;;;;;5.70;2.88;;;;;;;1.81;81.79;100892.72;10502968;28;20101;-71
2021/12/20 13:08:26;;;;;;;10.98;2.75;;;;;;;1.81;81.77;100897.91;10503137;28;20098;-75
2021/12/20 13:13:31;;;;;;;8.63;2.47;;;;;;;1.92;81.42;100886.03;10503522;28;20041;-74
2021/12/20 13:18:36;;;;;;;7.28;2.97;;;;;;;2.09;80.48;100886.31;10504932;28;20044;-74
2021/12/20 13:23:43;;;;;;;7.43;2.58;;;;;;;1.92;81.61;100892.94;10504949;28;20044;-74
2021/12/20 13:28:51;;;;;;;7.95;2.38;;;;;;;1.82;82.22;100902.28;10507431;28;20066;-76
2021/12/20 13:33:55;;;;;;;6.53;2.38;;;;;;;2.18;79.92;100891.63;10508081;28;20037;-75
2021/12/20 13:39:06;;;;;;;7.97;2.80;;;;;;;2.28;79.28;100895.25;10505223;28;20048;-75
2021/12/20 13:44:13;;;;;;;16.80;2.85;;;;;;;2.19;80.22;100901.16;10503427;28;20440;-74
2021/12/20 13:49:20;;;;;;;10.67;4.03;;;;;;;1.88;81.42;100907.56;10503927;28;20051;-74
2021/12/20 13:54:35;;;;;;;7.75;3.63;;;;;;;2.13;80.55;100900.19;10503782;28;20064;-74
2021/12/20 13:59:40;;;;;;;6.28;2.20;;;;;;;2.05;81.40;100912.16;10505095;28;20048;-73
2021/12/20 14:04:44;;;;;;;5.82;2.40;;;;;;;2.27;79.95;100901.28;10504814;28;20421;-74
2021/12/20 14:10:06;;;;;;;6.18;2.72;;;;;;;2.20;79.58;100905.50;10545511;28;20048;-74
2021/12/20 14:15:11;;;;;;;10.52;3.65;;;;;;;2.18;79.84;100907.19;10510632;28;20077;-74
2021/12/20 14:20:13;;;;;;;6.93;3.03;;;;;;;2.02;81.19;100907.78;10546218;28;20051;-74
2021/12/20 14:25:31;;;;;;;6.63;2.33;;;;;;;1.78;82.16;100910.84;10545682;28;20071;-75
2021/12/20 14:30:34;;;;;;;6.97;1.98;;;;;;;1.90;81.38;100918.81;10546122;28;20094;-74
2021/12/20 14:35:36;;;;;;;6.40;2.10;;;;;;;1.70;82.77;100934.03;10545210;28;20040;-75
2021/12/20 14:40:46;;;;;;;5.38;2.05;;;;;;;1.67;83.00;100930.50;10544409;28;20040;-75
2021/12/20 14:46:12;;;;;;;7.07;2.20;;;;;;;1.61;83.02;100930.38;10543663;28;20489;-75
2021/12/20 14:51:16;;;;;;;11.25;2.60;;;;;;;1.54;83.82;100938.88;10527910;28;20067;-73
2021/12/20 14:56:18;;;;;;;7.45;2.13;;;;;;;1.49;84.34;100946.56;10544335;22;20044;-73
2021/12/20 15:01:19;;;;;;;6.45;2.33;;;;;;;1.46;84.49;100939.63;10500430;28;20052;-73
2021/12/20 15:06:21;;;;;;;5.05;2.45;;;;;;;1.53;83.46;100948.38;10501565;28;20071;-74
2021/12/20 15:11:24;;;;;;;6.10;2.88;;;;;;;1.32;84.21;100955.72;10500133;28;20106;-74
2021/12/20 15:16:25;;;;;;;11.10;2.78;;;;;;;1.15;84.83;100963.13;10499708;28;20049;-72
2021/12/20 15:21:29;;;;;;;10.23;3.53;;;;;;;1.12;85.06;100965.66;10482116;28;20132;-72
2021/12/20 15:26:31;;;;;;;6.18;3.22;;;;;;;1.09;85.34;100974.22;10499381;28;20048;-73
2021/12/20 15:31:35;;;;;;;6.72;2.92;;;;;;;1.05;85.87;100979.31;10498928;28;20115;-73
2021/12/20 15:36:36;;;;;;;10.50;7.25;;;;;;;1.00;86.50;100980.09;10499013;28;20052;-73
2021/12/20 15:41:38;;;;;;;9.75;5.30;;;;;;;1.03;86.83;100983.59;10499705;28;20045;-74
2021/12/20 15:46:40;;;;;;;5.90;3.42;;;;;;;1.06;86.89;100983.63;10481646;28;20049;-74
2021/12/20 15:51:42;;;;;;;10.07;4.10;;;;;;;1.23;86.17;100997.84;10481185;28;20076;-74
2021/12/20 15:56:43;;;;;;;7.63;3.75;;;;;;;1.29;85.47;100994.53;10507676;28;20052;-73
2021/12/20 16:01:54;;;;;;;11.65;4.93;;;;;;;1.11;86.07;100997.59;10507892;28;20397;-73
2021/12/20 16:06:56;;;;;;;10.48;5.30;;;;;;;1.18;86.36;100994.28;10507204;28;20094;-73
2021/12/20 16:11:58;;;;;;;11.15;5.05;;;;;;;1.13;86.19;100991.59;10506132;28;20090;-72
2021/12/20 16:16:59;;;;;;;16.13;5.40;;;;;;;1.14;85.97;101000.22;10488917;28;20563;-73
2021/12/20 16:22:04;;;;;;;12.10;4.78;;;;;;;1.34;85.14;101005.84;10488891;28;20066;-73
2021/12/20 16:27:06;;;;;;;13.07;6.80;;;;;;;1.31;84.40;100993.69;10488746;28;20044;-75
2021/12/20 16:32:07;;;;;;;42.83;28.40;;;;;;;1.21;85.36;100999.53;10489834;28;20098;-74
2021/12/20 16:37:09;;;;;;;8.70;5.25;;;;;;;1.18;85.25;101002.03;10506649;28;20048;-72
2021/12/20 16:42:11;;;;;;;9.77;6.63;;;;;;;1.20;85.19;100997.78;10506152;28;20105;-74
2021/12/20 16:47:24;;;;;;;12.88;7.03;;;;;;;1.24;85.50;101002.19;10507735;28;20101;-74
2021/12/20 16:52:26;;;;;;;6.05;3.60;;;;;;;1.08;85.43;101007.88;10488598;28;20123;-74
2021/12/20 16:57:28;;;;;;;6.72;3.72;;;;;;;1.07;85.40;101011.31;10506054;28;20044;-76
2021/12/20 17:02:43;;;;;;;10.65;8.13;;;;;;;0.99;85.39;101019.75;10506556;28;20107;-74
2021/12/20 17:07:44;;;;;;;13.13;8.77;;;;;;;0.88;86.25;101020.34;10504318;28;20063;-74
2021/12/20 17:12:46;;;;;;;12.80;6.82;;;;;;;0.98;85.98;101023.19;10505092;28;20139;-74
2021/12/20 17:17:48;;;;;;;14.73;7.22;;;;;;;0.84;86.31;101031.47;10505861;28;20041;-75
2021/12/20 17:22:49;;;;;;;6.68;3.78;;;;;;;0.74;86.27;101035.56;10504359;28;20051;-74
2021/12/20 17:27:51;;;;;;;9.13;3.90;;;;;;;0.67;86.26;101028.50;10503119;28;20040;-74
2021/12/20 17:32:53;;;;;;;7.50;3.28;;;;;;;0.52;86.72;101034.16;10504703;28;20482;-74
2021/12/20 17:37:55;;;;;;;10.18;4.20;;;;;;;0.47;87.36;101035.75;10505090;28;20052;-74
2021/12/20 17:43:05;;;;;;;7.25;3.60;;;;;;;0.44;87.18;101031.41;10505547;28;20066;-75
2021/12/20 17:48:07;;;;;;;10.98;4.43;;;;;;;0.46;86.87;101036.59;10504915;28;20102;-74
2021/12/20 17:53:08;;;;;;;15.13;6.88;;;;;;;0.93;85.42;101039.44;10485822;28;20047;-73
2021/12/20 17:58:11;;;;;;;10.05;5.15;;;;;;;1.00;84.69;101049.13;10485936;28;20053;-74
2021/12/20 18:03:13;;;;;;;10.68;5.22;;;;;;;0.91;84.83;101042.00;10486271;28;20040;-74
2021/12/20 18:08:15;;;;;;;18.38;6.68;;;;;;;1.00;84.80;101038.75;10485677;28;20057;-75
2021/12/20 18:13:17;;;;;;;9.40;5.40;;;;;;;0.76;85.84;101049.41;10484016;28;20040;-73
2021/12/20 18:18:19;;;;;;;10.65;3.85;;;;;;;0.92;85.37;101045.47;10501703;28;20070;-74
2021/12/20 18:23:20;;;;;;;7.18;3.90;;;;;;;0.85;85.87;101043.59;10485185;28;20409;-75
2021/12/20 18:28:22;;;;;;;7.13;4.80;;;;;;;0.81;86.34;101053.00;10483640;28;20098;-74
2021/12/20 18:33:23;;;;;;;9.00;4.70;;;;;;;0.96;84.96;101055.94;10502715;28;20059;-74
2021/12/20 18:38:29;;;;;;;10.48;6.03;;;;;;;0.81;86.12;101052.13;10502522;28;20053;-75
2021/12/20 18:43:32;;;;;;;7.80;4.25;;;;;;;0.87;85.82;101047.06;10484546;28;20052;-75
2021/12/20 18:48:34;;;;;;;7.60;4.38;;;;;;;0.95;85.40;101049.00;10502316;28;20090;-74
2021/12/20 18:53:36;;;;;;;7.28;3.67;;;;;;;1.31;82.97;101047.22;10502735;28;20390;-75
2021/12/20 18:58:38;;;;;;;8.30;3.85;;;;;;;1.05;83.87;101050.09;10501644;28;20101;-74
2021/12/20 19:03:39;;;;;;;11.40;4.13;;;;;;;0.90;84.51;101055.78;10501170;28;20040;-74
2021/12/20 19:09:02;;;;;;;6.70;4.88;;;;;;;1.09;84.25;101057.09;10469792;28;20049;-74
2021/12/20 19:14:09;;;;;;;10.25;4.22;;;;;;;1.22;82.02;101059.13;10483635;28;20086;-74
2021/12/20 19:19:13;;;;;;;6.28;3.60;;;;;;;1.11;82.46;101059.75;10502313;28;20044;-74
2021/12/20 19:24:15;;;;;;;4.70;2.60;;;;;;;1.27;81.02;101065.28;10485663;28;20398;-75
2021/12/20 19:29:17;;;;;;;6.00;3.03;;;;;;;1.09;82.09;101067.44;10483221;28;20094;-74
2021/12/20 19:34:21;;;;;;;11.98;2.40;;;;;;;1.25;80.14;101063.50;10484156;28;20131;-74
2021/12/20 19:39:25;;;;;;;5.32;2.58;;;;;;;1.00;81.62;101064.66;10501806;28;20123;-75
2021/12/20 19:44:27;;;;;;;7.03;2.85;;;;;;;1.03;81.78;101067.31;10502033;28;20063;-74
2021/12/20 19:49:29;;;;;;;5.30;2.60;;;;;;;0.89;81.93;101064.41;10467340;28;20045;-75
2021/12/20 19:54:35;;;;;;;6.28;2.72;;;;;;;1.16;80.45;101064.16;10502569;28;20041;-75
2021/12/20 19:59:37;;;;;;;4.47;2.42;;;;;;;1.16;79.67;101060.72;10483342;28;20076;-73
2021/12/20 20:04:39;;;;;;;6.03;3.17;;;;;;;0.92;81.72;101061.00;10484011;28;20086;-74
2021/12/20 20:09:42;;;;;;;10.55;3.85;;;;;;;1.24;80.17;101065.22;10482787;28;20083;-74
2021/12/20 20:14:44;;;;;;;7.15;3.35;;;;;;;1.12;80.75;101069.25;10467552;28;20082;-74
2021/12/20 20:19:45;;;;;;;6.45;2.78;;;;;;;0.85;82.66;101078.13;10483793;28;20045;-74
2021/12/20 20:24:54;;;;;;;7.18;3.75;;;;;;;1.16;81.55;101071.06;10485015;28;20064;-76
2021/12/20 20:29:55;;;;;;;7.90;3.33;;;;;;;1.33;81.07;101077.50;10482613;28;20052;-74
2021/12/20 20:34:58;;;;;;;8.82;3.30;;;;;;;1.19;81.03;101074.56;10482885;28;20079;-74
2021/12/20 20:40:00;;;;;;;7.50;3.33;;;;;;;0.97;82.76;101078.41;10503142;28;20044;-74
2021/12/20 20:45:03;;;;;;;5.63;4.53;;;;;;;1.06;82.80;101076.84;10490196;28;20043;-74
2021/12/20 20:50:05;;;;;;;7.78;3.90;;;;;;;1.24;81.84;101077.31;10507544;28;20555;-75
2021/12/20 21:05:38;;;;;;;6.85;4.57;;;;;;;1.14;81.60;101070.13;10462766;28;20052;-72
2021/12/20 21:10:39;;;;;;;6.85;4.80;;;;;;;1.09;81.32;101074.34;10461442;28;20061;-73
2021/12/20 21:15:41;;;;;;;8.43;5.13;;;;;;;0.80;83.14;101084.91;10443456;28;20060;-72
2021/12/20 21:20:42;;;;;;;7.57;5.47;;;;;;;0.83;83.02;101086.66;10462022;28;20049;-72
2021/12/20 21:25:44;;;;;;;11.43;4.82;;;;;;;1.06;82.28;101082.03;10461942;28;20424;-73
2021/12/20 21:30:46;;;;;;;5.82;3.60;;;;;;;1.14;82.19;101080.50;10461696;28;20461;-73
2021/12/20 21:35:48;;;;;;;7.50;4.57;;;;;;;1.17;81.50;101078.00;10459628;28;20045;-72
2021/12/20 21:40:50;;;;;;;15.05;5.43;;;;;;;1.07;81.64;101076.91;10459970;28;20056;-71
2021/12/20 21:45:53;;;;;;;6.93;5.45;;;;;;;1.09;82.06;101079.53;10459499;28;20044;-71
2021/12/20 21:50:55;;;;;;;7.80;5.90;;;;;;;1.05;82.37;101069.94;10460378;28;20053;-71
2021/12/20 21:55:58;;;;;;;7.88;6.07;;;;;;;0.98;82.78;101061.16;10459839;28;20099;-72
2021/12/20 22:00:59;;;;;;;8.07;5.50;;;;;;;0.99;82.88;101063.78;10458909;28;20045;-71
2021/12/20 22:06:01;;;;;;;8.48;6.25;;;;;;;1.03;83.43;101067.31;10460116;28;20514;-72
2021/12/20 22:11:03;;;;;;;9.27;6.28;;;;;;;0.78;84.73;101071.03;10460254;28;20049;-71
2021/12/20 22:16:05;;;;;;;11.38;6.55;;;;;;;0.88;83.91;101059.16;10460282;28;20044;-71
2021/12/20 22:21:06;;;;;;;9.82;5.57;;;;;;;0.96;83.66;101058.50;10457672;28;20053;-71
2021/12/20 22:26:08;;;;;;;10.57;6.22;;;;;;;0.94;83.86;101057.63;10457828;28;20055;-71
2021/12/20 22:31:09;;;;;;;9.38;6.00;;;;;;;1.02;83.05;101057.81;10458619;28;20121;-71
2021/12/20 22:36:11;;;;;;;9.13;5.63;;;;;;;0.91;83.99;101049.78;10457299;28;20044;-71
2021/12/20 22:41:13;;;;;;;8.85;4.90;;;;;;;0.86;83.75;101063.44;10439533;28;20045;-71
2021/12/20 22:46:15;;;;;;;10.18;5.88;;;;;;;0.79;84.26;101059.81;10457111;28;20041;-72
2021/12/20 22:51:17;;;;;;;10.68;4.70;;;;;;;0.84;83.58;101068.59;10455475;28;20048;-72
2021/12/20 22:56:18;;;;;;;6.90;4.18;;;;;;;0.90;82.72;101062.69;10457547;28;20098;-71
2021/12/20 23:01:20;;;;;;;6.55;4.35;;;;;;;0.99;81.46;101065.50;10456690;28;20087;-72
2021/12/20 23:06:22;;;;;;;4.38;3.92;;;;;;;1.05;81.24;101070.81;10456764;28;20083;-71
2021/12/20 23:11:24;;;;;;;7.63;4.30;;;;;;;0.81;82.75;101076.28;10456373;28;20049;-72
2021/12/20 23:16:25;;;;;;;8.43;4.38;;;;;;;0.73;84.08;101078.69;10454907;28;20044;-71
2021/12/20 23:21:27;;;;;;;9.75;6.07;;;;;;;0.72;84.57;101081.25;10456137;28;20048;-71
2021/12/20 23:26:30;;;;;;;10.35;5.15;;;;;;;0.75;84.57;101076.13;10455748;28;20088;-70
2021/12/20 23:31:33;;;;;;;10.38;6.88;;;;;;;0.58;85.30;101080.03;10455705;28;20098;-71
2021/12/20 23:36:37;;;;;;;9.43;5.75;;;;;;;0.77;84.74;101078.75;10455586;28;20037;-69
2021/12/20 23:41:44;;;;;;;9.35;6.55;;;;;;;0.70;84.85;101077.72;10455639;28;20052;-71
2021/12/20 23:46:46;;;;;;;;;;;;;;;0.87;83.74;101081.59;10439195;28;20091;-70
2021/12/20 23:51:47;;;;;;;7.13;5.95;;;;;;;0.62;85.50;101077.53;10456937;28;19983;-70